^^
Station Historical Data
Daily Summary for January 13, 2018 Units:  Metric    English   Both
« Previous Day
Next Day »
Daily Weekly Monthly Yearly Custom
  High: Low: Average:
Temperature: 9.2 °C -8.6 °C -1.3 °C
Dew Point: -1.4 °C -10.8 °C -7 °C
Humidity: 86% 35% 69%
Wind Speed: 9.3km/h 0km/h 2.4km/h
Wind Gust: 9.3km/h - -
Wind- - South
Pressure: 1030.7 hPa 1022.2 hPa -
Precipitation: 0 mm    
Historical Graphs
 
 
Tabular Data for January 13, 2018
Time Temperature Dew Point Pressure Wind Wind Speed Wind Gust Humidity Rainfall Rate (Hourly) solar Conditions
00:03 -6.9 °C -9.3 °C 1028.7 hPa Calm     83% 0 mm WeatherDisplay:10.37 W/m2 CLR
00:21 -7 °C -9.4 °C 1028.3 hPa Calm     83% 0 mm WeatherDisplay:10.37 W/m2 CLR
00:29 -7.1 °C -9.4 °C 1028 hPa Calm     83% 0 mm WeatherDisplay:10.37 W/m2 CLR
00:47 -7.3 °C -9.7 °C 1028 hPa Calm     83% 0 mm WeatherDisplay:10.37 W/m2 CLR
01:16 -7.3 °C -9.4 °C 1027.3 hPa Calm     85% 0 mm WeatherDisplay:10.37 W/m2 CLR
01:29 -7.2 °C -9.6 °C 1027.3 hPa Calm     83% 0 mm WeatherDisplay:10.37 W/m2 CLR
01:36 -7.4 °C -10 °C 1027.3 hPa Calm     82% 0 mm WeatherDisplay:10.37 W/m2 CLR
01:53 -7.9 °C -10.4 °C 1028 hPa Calm     82% 0 mm WeatherDisplay:10.37 W/m2 CLR
02:09 -7.9 °C -10.2 °C 1027.7 hPa Calm     84% 0 mm WeatherDisplay:10.37 W/m2 CLR
02:23 -8.1 °C -10.3 °C 1027.7 hPa ESE 1.9 km/h   84% 0 mm WeatherDisplay:10.37 W/m2 CLR
02:54 -8.2 °C -10.2 °C 1027.7 hPa Calm     85% 0 mm WeatherDisplay:10.37 W/m2 CLR
03:11 -8.2 °C -10.3 °C 1027.7 hPa Calm     85% 0 mm WeatherDisplay:10.37 W/m2 CLR
03:29 -8.3 °C -10.6 °C 1028 hPa ESE 1.9 km/h 1.9 km/h 84% 0 mm WeatherDisplay:10.37 W/m2 CLR
03:43 -8.4 °C -10.4 °C 1028 hPa Calm     85% 0 mm WeatherDisplay:10.37 W/m2 CLR
03:50 -8.4 °C -10.4 °C 1027.7 hPa Calm     85% 0 mm WeatherDisplay:10.37 W/m2 CLR
04:09 -8.2 °C -10.2 °C 1029 hPa Calm     85% 0 mm WeatherDisplay:10.37 W/m2 CLR
04:38 -8.2 °C -10.2 °C 1029.3 hPa Calm     85% 0 mm WeatherDisplay:10.37 W/m2 CLR
04:43 -8.2 °C -10.3 °C 1029.3 hPa Calm     85% 0 mm WeatherDisplay:10.37 W/m2 CLR
04:53 -8.3 °C -10.4 °C 1029 hPa Calm     85% 0 mm WeatherDisplay:10.37 W/m2 CLR
05:05 -8.6 °C -10.8 °C 1030 hPa SSW 1.6 km/h   84% 0 mm WeatherDisplay:10.37 W/m2 CLR
05:11 -8.5 °C -10.6 °C 1030 hPa SSW 1.9 km/h   85% 0 mm WeatherDisplay:10.37 W/m2 CLR
05:20 -8.3 °C -10.4 °C 1030 hPa SSW 1.9 km/h   85% 0 mm WeatherDisplay:10.37 W/m2 CLR
05:26 -8.2 °C -10.2 °C 1030 hPa SSW 1.9 km/h   86% 0 mm WeatherDisplay:10.37 W/m2 CLR
05:33 -7.9 °C -9.9 °C 1029.7 hPa Calm     86% 0 mm WeatherDisplay:10.37 W/m2 CLR
05:47 -7.7 °C -9.8 °C 1029.7 hPa SSW 5.6 km/h 5.6 km/h 85% 0 mm WeatherDisplay:10.37 W/m2 CLR
05:54 -7.8 °C -10 °C 1029.7 hPa SW 1.9 km/h 1.9 km/h 84% 0 mm WeatherDisplay:10.37 W/m2 CLR
06:00 -7.8 °C -10.1 °C 1029.7 hPa SW 5.6 km/h 5.6 km/h 84% 0 mm WeatherDisplay:10.37 W/m2 CLR
06:18 -7.7 °C -9.8 °C 1030.4 hPa SW 1.9 km/h   85% 0 mm WeatherDisplay:10.37 W/m2 CLR
06:25 -7.5 °C -9.4 °C 1030 hPa SW 6.4 km/h 6.4 km/h 86% 0 mm WeatherDisplay:10.37 W/m2 CLR
06:32 -7.3 °C -9.4 °C 1030 hPa SSW 5.6 km/h 5.6 km/h 85% 0 mm WeatherDisplay:10.37 W/m2 CLR
06:38 -7.3 °C -9.4 °C 1030 hPa Calm     85% 0 mm WeatherDisplay:10.37 W/m2 CLR
06:50 -6.8 °C -8.8 °C 1030 hPa SSW 3.7 km/h 3.7 km/h 86% 0 mm WeatherDisplay:10.37 W/m2 CLR
07:02 -6.5 °C -8.4 °C 1030.4 hPa SSW 5.6 km/h 5.6 km/h 86% 0 mm WeatherDisplay:10.37 W/m2 CLR
07:07 -6.6 °C -8.8 °C 1030.4 hPa SSW 1.9 km/h 1.9 km/h 84% 0 mm WeatherDisplay:10.37 W/m2 CLR
07:15 -6.6 °C -8.9 °C 1030.4 hPa SSW 4.8 km/h 4.8 km/h 84% 0 mm WeatherDisplay:10.37 W/m2 CLR
07:32 -6.3 °C -8.4 °C 1030.4 hPa Calm     85% 0 mm WeatherDisplay:10.37 W/m2 CLR
07:41 -5.9 °C -8 °C 1030.4 hPa SSW 7.4 km/h 7.4 km/h 85% 0 mm WeatherDisplay:10.37 W/m2 CLR
07:51 -5.4 °C -7.7 °C 1030 hPa SSW 5.6 km/h 5.6 km/h 84% 0 mm WeatherDisplay:10.37 W/m2 CLR
08:06 -5.2 °C -7.4 °C 1030.4 hPa SSW 3.7 km/h 3.7 km/h 84% 0 mm WeatherDisplay:10.37 W/m2 CLR
08:12 -5.1 °C -7.4 °C 1030.4 hPa Calm     84% 0 mm WeatherDisplay:10.37 W/m2 CLR
08:19 -5.1 °C -7.5 °C 1030.7 hPa WNW 3.7 km/h 3.7 km/h 83% 0 mm WeatherDisplay:10.37 W/m2 CLR
08:55 -4 °C -6.3 °C 1030.4 hPa SW 3.7 km/h 3.7 km/h 84% 0 mm WeatherDisplay:10.37 W/m2 CLR
09:01 -3.7 °C -6.1 °C 1030.4 hPa SSW 7.4 km/h 7.4 km/h 84% 0 mm WeatherDisplay:10.37 W/m2 CLR
09:09 -3.4 °C -5.9 °C 1030.7 hPa SSW 5.6 km/h 5.6 km/h 83% 0 mm WeatherDisplay:10.37 W/m2 CLR
09:17 -3 °C -5.5 °C 1030.4 hPa Calm     83% 0 mm WeatherDisplay:10.37 W/m2 CLR
09:25 -2.6 °C -5.1 °C 1030.4 hPa SSW 5.6 km/h 5.6 km/h 83% 0 mm WeatherDisplay:10.37 W/m2 CLR
09:33 -2 °C -4.5 °C 1030.4 hPa SW 1.9 km/h 1.9 km/h 83% 0 mm WeatherDisplay:10.37 W/m2 CLR
09:39 -1.7 °C -4.3 °C 1030 hPa SW 1.9 km/h   82% 0 mm WeatherDisplay:10.37 W/m2 CLR
09:51 -1 °C -4 °C 1030 hPa SW 3.7 km/h 3.7 km/h 80% 0 mm WeatherDisplay:10.37 W/m2 CLR
10:02 -0.6 °C -3.8 °C 1030.4 hPa SW 5.6 km/h 5.6 km/h 79% 0 mm WeatherDisplay:10.37 W/m2 CLR
10:09 -0.3 °C -3.5 °C 1030 hPa SW 1.9 km/h   79% 0 mm WeatherDisplay:10.37 W/m2 CLR
10:21 0.3 °C -3.1 °C 1029.7 hPa Calm     78% 0 mm WeatherDisplay:10.37 W/m2 CLR
10:28 0.7 °C -3.1 °C 1029.3 hPa South 5.6 km/h 5.6 km/h 76% 0 mm WeatherDisplay:10.37 W/m2 CLR
10:49 2.2 °C -2.4 °C 1028 hPa SSW 3.7 km/h   72% 0 mm WeatherDisplay:10.37 W/m2 CLR
10:54 2.7 °C -2.1 °C 1028 hPa SW 5.6 km/h 5.6 km/h 71% 0 mm WeatherDisplay:10.37 W/m2 CLR
11:15 4.6 °C -1.4 °C 1026.6 hPa SW 5.6 km/h 5.6 km/h 65% 0 mm WeatherDisplay:10.37 W/m2 CLR
11:22 5.1 °C -1.8 °C 1026.3 hPa SW 1.9 km/h   61% 0 mm WeatherDisplay:10.37 W/m2 CLR
12:07 6.9 °C -3.6 °C 1024.9 hPa South 5.6 km/h 5.6 km/h 47% 0 mm WeatherDisplay:10.37 W/m2 CLR
12:21 7.2 °C -3.9 °C 1023.9 hPa SE 5.6 km/h 5.6 km/h 45% 0 mm WeatherDisplay:10.37 W/m2 CLR
12:27 7.5 °C -4.3 °C 1023.9 hPa ESE 5.6 km/h 5.6 km/h 43% 0 mm WeatherDisplay:10.37 W/m2 CLR
12:48 7.9 °C -5.2 °C 1023.6 hPa ESE 9.3 km/h 9.3 km/h 39% 0 mm WeatherDisplay:10.37 W/m2 CLR
12:56 7.9 °C -4.9 °C 1023.6 hPa SE 6.4 km/h 6.4 km/h 40% 0 mm WeatherDisplay:10.37 W/m2 CLR
13:03 7.8 °C -4.3 °C 1023.6 hPa SE 5.6 km/h 5.6 km/h 42% 0 mm WeatherDisplay:10.37 W/m2 CLR
13:14 7.6 °C -4.2 °C 1023.2 hPa SE 5.6 km/h 5.6 km/h 43% 0 mm WeatherDisplay:10.37 W/m2 CLR
13:25 7.5 °C -4.3 °C 1023.6 hPa SE 5.6 km/h 5.6 km/h 43% 0 mm WeatherDisplay:10.37 W/m2 CLR
13:31 7.6 °C -4.8 °C 1023.6 hPa ESE 3.7 km/h 3.7 km/h 41% 0 mm WeatherDisplay:10.37 W/m2 CLR
13:37 7.8 °C -4.7 °C 1023.2 hPa SE 5.6 km/h 5.6 km/h 41% 0 mm WeatherDisplay:10.37 W/m2 CLR
13:57 7.9 °C -5.2 °C 1022.9 hPa SSE 5.6 km/h 5.6 km/h 39% 0 mm WeatherDisplay:10.37 W/m2 CLR
14:03 7.9 °C -5.2 °C 1023.2 hPa ESE 5.6 km/h 5.6 km/h 39% 0 mm WeatherDisplay:10.37 W/m2 CLR
14:14 7.8 °C -4.6 °C 1022.9 hPa SSE 3.7 km/h 3.7 km/h 41% 0 mm WeatherDisplay:10.37 W/m2 CLR
14:26 8 °C -4.5 °C 1022.6 hPa SE 4.8 km/h 4.8 km/h 41% 0 mm WeatherDisplay:10.37 W/m2 CLR
15:06 8.4 °C -4.4 °C 1022.2 hPa SSE 5.6 km/h 5.6 km/h 40% 0 mm WeatherDisplay:10.37 W/m2 CLR
15:35 9.2 °C -5.5 °C 1022.6 hPa ESE 3.7 km/h 3.7 km/h 35% 0 mm WeatherDisplay:10.37 W/m2 CLR
15:44 9.1 °C -4.8 °C 1023.2 hPa ESE 6.4 km/h 6.4 km/h 37% 0 mm WeatherDisplay:10.37 W/m2 CLR
15:56 8.9 °C -5 °C 1023.2 hPa ESE 4.8 km/h 4.8 km/h 37% 0 mm WeatherDisplay:10.37 W/m2 CLR
16:15 8.5 °C -5.1 °C 1023.6 hPa ESE 1.9 km/h 1.9 km/h 38% 0 mm WeatherDisplay:10.37 W/m2 CLR
16:42 7.5 °C -5.3 °C 1024.3 hPa Calm     40% 0 mm WeatherDisplay:10.37 W/m2 CLR
16:57 6.8 °C -5.5 °C 1024.9 hPa Calm     41% 0 mm WeatherDisplay:10.37 W/m2 CLR
17:04 6.3 °C -5.7 °C 1024.3 hPa Calm     42% 0 mm WeatherDisplay:10.37 W/m2 CLR
17:11 5.9 °C -5.8 °C 1024.6 hPa Calm     43% 0 mm WeatherDisplay:10.37 W/m2 CLR
17:29 4.1 °C -6.5 °C 1025.6 hPa ESE 3.2 km/h 3.2 km/h 46% 0 mm WeatherDisplay:10.37 W/m2 CLR
17:35 3.7 °C -6.6 °C 1025.6 hPa Calm     47% 0 mm WeatherDisplay:10.37 W/m2 CLR
17:43 3.3 °C -6.7 °C 1025.6 hPa Calm     48% 0 mm WeatherDisplay:10.37 W/m2 CLR
17:48 3.1 °C -6.6 °C 1026 hPa Calm   0.2 km/h 49% 0 mm WeatherDisplay:10.37 W/m2 CLR
18:05 2.9 °C -6.7 °C 1025.6 hPa Calm     49% 0 mm WeatherDisplay:10.37 W/m2 CLR
18:13 2.7 °C -7 °C 1026 hPa SSW 7.4 km/h 7.4 km/h 49% 0 mm WeatherDisplay:10.37 W/m2 CLR
18:37 2.1 °C -7.1 °C 1026 hPa SW 3.7 km/h 3.7 km/h 51% 0 mm WeatherDisplay:10.37 W/m2 CLR
18:59 1.3 °C -7.8 °C 1026.6 hPa Calm     51% 0 mm WeatherDisplay:10.37 W/m2 CLR
19:11 0.7 °C -7.3 °C 1026.3 hPa SSE 5.6 km/h 5.6 km/h 55% 0 mm WeatherDisplay:10.37 W/m2 CLR
19:16 0.9 °C -7.3 °C 1026.6 hPa SSE 4.8 km/h 4.8 km/h 54% 0 mm WeatherDisplay:10.37 W/m2 CLR
19:36 0.5 °C -7.5 °C 1027 hPa Calm     55% 0 mm WeatherDisplay:10.37 W/m2 CLR
19:48 -0.2 °C -7.7 °C 1027.3 hPa Calm     57% 0 mm WeatherDisplay:10.37 W/m2 CLR
20:01 -0.8 °C -7.8 °C 1027.3 hPa Calm     59% 0 mm WeatherDisplay:10.37 W/m2 CLR
20:07 -1.2 °C -7.7 °C 1027.3 hPa Calm     61% 0 mm WeatherDisplay:10.37 W/m2 CLR
20:14 -1.3 °C -7.5 °C 1027.3 hPa Calm     63% 0 mm WeatherDisplay:10.37 W/m2 CLR
20:31 -1.8 °C -7.3 °C 1027.7 hPa Calm     66% 0 mm WeatherDisplay:10.37 W/m2 CLR
20:45 -2.1 °C -7.4 °C 1028.3 hPa Calm     67% 0 mm WeatherDisplay:10.37 W/m2 CLR
20:52 -2.1 °C -7.2 °C 1028.3 hPa Calm     68% 0 mm WeatherDisplay:10.37 W/m2 CLR
21:04 -1.9 °C -6.9 °C 1027 hPa Calm     69% 0 mm WeatherDisplay:10.37 W/m2 CLR
21:11 -1.8 °C -6.8 °C 1027 hPa Calm     69% 0 mm WeatherDisplay:10.37 W/m2 CLR
21:16 -1.8 °C -6.8 °C 1027 hPa Calm     69% 0 mm WeatherDisplay:10.37 W/m2 CLR
21:24 -2 °C -7.1 °C 1027.3 hPa Calm     68% 0 mm WeatherDisplay:10.37 W/m2 CLR
21:36 -2.3 °C -7.4 °C 1028 hPa Calm     68% 0 mm WeatherDisplay:10.37 W/m2 CLR
21:55 -2.6 °C -7.2 °C 1028 hPa SSE 1.9 km/h 1.9 km/h 71% 0 mm WeatherDisplay:10.37 W/m2 CLR
22:02 -2.5 °C -7.2 °C 1027 hPa Calm     70% 0 mm WeatherDisplay:10.37 W/m2 CLR
22:18 -2.7 °C -7.6 °C 1027.7 hPa Calm     69% 0 mm WeatherDisplay:10.37 W/m2 CLR
22:24 -2.8 °C -7.5 °C 1027.7 hPa Calm     70% 0 mm WeatherDisplay:10.37 W/m2 CLR
22:31 -2.9 °C -7.7 °C 1027.7 hPa Calm     70% 0 mm WeatherDisplay:10.37 W/m2 CLR
22:39 -3.3 °C -8.2 °C 1028.3 hPa ESE 1.9 km/h   69% 0 mm WeatherDisplay:10.37 W/m2 CLR
23:02 -3.6 °C -7.7 °C 1027.3 hPa Calm     73% 0 mm WeatherDisplay:10.37 W/m2 CLR
23:10 -3.3 °C -6.9 °C 1027.3 hPa Calm     76% 0 mm WeatherDisplay:10.37 W/m2 CLR
23:20 -2.4 °C -5.1 °C 1027 hPa ESE 1.9 km/h 1.9 km/h 82% 0 mm WeatherDisplay:10.37 W/m2 CLR
23:28 -1.9 °C -4.2 °C 1026.6 hPa ESE 3.7 km/h 3.7 km/h 84% 0 mm WeatherDisplay:10.37 W/m2 CLR
23:36 -1.4 °C -3.9 °C 1026.3 hPa Calm     83% 0 mm WeatherDisplay:10.37 W/m2 CLR
23:43 -1.2 °C -3.7 °C 1026.3 hPa Calm     83% 0 mm WeatherDisplay:10.37 W/m2 CLR
Windsor Co Weather
Compliments of Weather Underground - 2 mb